OEXDZ LOAV-LOAG
Flight info
| Callsign | OEXDZ |
|---|---|
| Flight time | 0h 33m |
| Altitude | 10000 |
| Route | FREUDENAU KLOSTERNEUBURG |
| Aircraft | EC45/L-V/N |
Departure
| Time | 2026-05-07 07:57 |
|---|---|
| Airport | Vöslau-Kottingbrunn Airfield (LOAV) |
Arrival
| Time | 2026-05-07 08:30 |
|---|---|
| Airport | Krems/Langenlois Airfield (LOAG) |
| Time | Latitude | Longitude | Altitude | Speed | Heading |
|---|---|---|---|---|---|
| 2026-05-07 07:50 | 47.96375 | 16.25272 | 778 ft | 0 kts | 0° |
| 2026-05-07 07:52 | 47.96379 | 16.25280 | 786 ft | 3 kts | 33° |
| 2026-05-07 07:52 | 47.96426 | 16.25325 | 784 ft | 14 kts | 15° |
| 2026-05-07 07:52 | 47.96493 | 16.25378 | 787 ft | 10 kts | 101° |
| 2026-05-07 07:53 | 47.96480 | 16.25524 | 792 ft | 14 kts | 65° |
| 2026-05-07 07:53 | 47.96519 | 16.25621 | 777 ft | 4 kts | 36° |
| 2026-05-07 07:53 | 47.96517 | 16.25608 | 774 ft | 0 kts | 34° |
| 2026-05-07 07:56 | 47.96524 | 16.25617 | 783 ft | 3 kts | 293° |
| 2026-05-07 07:56 | 47.96536 | 16.25596 | 910 ft | 18 kts | 291° |
| 2026-05-07 07:56 | 47.96617 | 16.25201 | 1119 ft | 61 kts | 291° |
| 2026-05-07 07:57 | 47.96843 | 16.24499 | 1255 ft | 84 kts | 300° |
| 2026-05-07 07:57 | 47.97324 | 16.23931 | 1593 ft | 96 kts | 329° |
| 2026-05-07 07:57 | 47.98048 | 16.24134 | 1807 ft | 121 kts | 20° |
| 2026-05-07 07:57 | 47.98742 | 16.25082 | 1775 ft | 147 kts | 42° |
| 2026-05-07 07:58 | 47.99377 | 16.26329 | 1742 ft | 155 kts | 49° |
| 2026-05-07 07:58 | 48.00061 | 16.27556 | 1730 ft | 152 kts | 39° |
| 2026-05-07 07:58 | 48.00858 | 16.28602 | 1593 ft | 154 kts | 32° |
| 2026-05-07 07:58 | 48.01712 | 16.29578 | 1452 ft | 156 kts | 31° |
| 2026-05-07 07:59 | 48.02532 | 16.30675 | 1338 ft | 158 kts | 36° |
| 2026-05-07 07:59 | 48.03269 | 16.31833 | 1334 ft | 152 kts | 43° |
| 2026-05-07 07:59 | 48.03901 | 16.33116 | 1335 ft | 155 kts | 51° |
| 2026-05-07 07:59 | 48.04417 | 16.34533 | 1345 ft | 154 kts | 58° |
| 2026-05-07 08:00 | 48.04962 | 16.35879 | 1339 ft | 151 kts | 49° |
| 2026-05-07 08:00 | 48.05637 | 16.37015 | 1347 ft | 145 kts | 36° |
| 2026-05-07 08:00 | 48.06404 | 16.37962 | 1341 ft | 143 kts | 31° |
| 2026-05-07 08:00 | 48.07161 | 16.38944 | 1345 ft | 144 kts | 33° |
| 2026-05-07 08:01 | 48.07919 | 16.39897 | 1339 ft | 141 kts | 29° |
| 2026-05-07 08:01 | 48.08715 | 16.40776 | 1342 ft | 142 kts | 26° |
| 2026-05-07 08:01 | 48.09512 | 16.41660 | 1341 ft | 143 kts | 28° |
| 2026-05-07 08:01 | 48.10282 | 16.42608 | 1338 ft | 144 kts | 32° |
| 2026-05-07 08:02 | 48.11025 | 16.43619 | 1338 ft | 145 kts | 36° |
| 2026-05-07 08:02 | 48.11773 | 16.44631 | 1345 ft | 142 kts | 29° |
| 2026-05-07 08:02 | 48.12585 | 16.45420 | 1337 ft | 137 kts | 21° |
| 2026-05-07 08:02 | 48.13457 | 16.45992 | 1342 ft | 136 kts | 11° |
| 2026-05-07 08:03 | 48.14360 | 16.46376 | 1342 ft | 133 kts | 6° |
| 2026-05-07 08:03 | 48.15246 | 16.46786 | 1340 ft | 135 kts | 13° |
| 2026-05-07 08:03 | 48.16113 | 16.47402 | 1343 ft | 140 kts | 20° |
| 2026-05-07 08:03 | 48.16938 | 16.48165 | 1341 ft | 137 kts | 21° |
| 2026-05-07 08:04 | 48.17804 | 16.48505 | 1333 ft | 130 kts | 352° |
| 2026-05-07 08:04 | 48.18576 | 16.47863 | 1346 ft | 127 kts | 307° |
| 2026-05-07 08:04 | 48.19150 | 16.46885 | 1340 ft | 123 kts | 307° |
| 2026-05-07 08:04 | 48.19728 | 16.45973 | 1340 ft | 122 kts | 309° |
| 2026-05-07 08:05 | 48.20320 | 16.45072 | 1340 ft | 121 kts | 310° |
| 2026-05-07 08:05 | 48.20917 | 16.44188 | 1344 ft | 120 kts | 309° |
| 2026-05-07 08:05 | 48.21505 | 16.43303 | 1341 ft | 119 kts | 308° |
| 2026-05-07 08:05 | 48.22080 | 16.42416 | 1343 ft | 118 kts | 306° |
| 2026-05-07 08:06 | 48.22662 | 16.41548 | 1339 ft | 120 kts | 310° |
| 2026-05-07 08:06 | 48.23344 | 16.40789 | 1345 ft | 123 kts | 316° |
| 2026-05-07 08:06 | 48.24056 | 16.40080 | 1337 ft | 123 kts | 318° |
| 2026-05-07 08:06 | 48.24781 | 16.39413 | 1343 ft | 124 kts | 320° |
| 2026-05-07 08:07 | 48.25529 | 16.38772 | 1343 ft | 124 kts | 322° |
| 2026-05-07 08:07 | 48.26292 | 16.38160 | 1342 ft | 124 kts | 323° |
| 2026-05-07 08:07 | 48.27065 | 16.37580 | 1344 ft | 124 kts | 324° |
| 2026-05-07 08:07 | 48.27834 | 16.37024 | 1341 ft | 122 kts | 326° |
| 2026-05-07 08:08 | 48.28604 | 16.36485 | 1342 ft | 122 kts | 326° |
| 2026-05-07 08:08 | 48.29379 | 16.35967 | 1340 ft | 122 kts | 327° |
| 2026-05-07 08:08 | 48.30163 | 16.35463 | 1343 ft | 122 kts | 327° |
| 2026-05-07 08:08 | 48.30914 | 16.34914 | 1336 ft | 119 kts | 322° |
| 2026-05-07 08:09 | 48.31608 | 16.34285 | 1338 ft | 119 kts | 320° |
| 2026-05-07 08:09 | 48.32362 | 16.33702 | 1338 ft | 122 kts | 326° |
| 2026-05-07 08:09 | 48.33131 | 16.33164 | 1481 ft | 125 kts | 326° |
| 2026-05-07 08:09 | 48.33817 | 16.32405 | 1670 ft | 122 kts | 310° |
| 2026-05-07 08:10 | 48.34303 | 16.31383 | 1889 ft | 120 kts | 294° |
| 2026-05-07 08:10 | 48.34687 | 16.30269 | 2011 ft | 120 kts | 294° |
| 2026-05-07 08:10 | 48.35103 | 16.29162 | 2107 ft | 122 kts | 296° |
| 2026-05-07 08:10 | 48.35517 | 16.28041 | 2190 ft | 122 kts | 291° |
| 2026-05-07 08:11 | 48.35744 | 16.26822 | 2296 ft | 121 kts | 277° |
| 2026-05-07 08:11 | 48.35897 | 16.25586 | 2377 ft | 120 kts | 279° |
| 2026-05-07 08:11 | 48.36088 | 16.24354 | 2462 ft | 122 kts | 281° |
| 2026-05-07 08:11 | 48.36295 | 16.23111 | 2550 ft | 122 kts | 280° |
| 2026-05-07 08:12 | 48.36471 | 16.21872 | 2630 ft | 122 kts | 279° |
| 2026-05-07 08:12 | 48.36640 | 16.20612 | 2709 ft | 123 kts | 277° |
| 2026-05-07 08:12 | 48.36962 | 16.19427 | 2849 ft | 126 kts | 297° |
| 2026-05-07 08:12 | 48.37645 | 16.18552 | 2870 ft | 134 kts | 321° |
| 2026-05-07 08:13 | 48.38572 | 16.18175 | 2983 ft | 140 kts | 342° |
| 2026-05-07 08:13 | 48.39514 | 16.17943 | 2999 ft | 134 kts | 340° |
| 2026-05-07 08:13 | 48.40427 | 16.17705 | 2984 ft | 133 kts | 341° |
| 2026-05-07 08:13 | 48.41334 | 16.17496 | 2991 ft | 131 kts | 342° |
| 2026-05-07 08:14 | 48.42231 | 16.17284 | 3001 ft | 129 kts | 340° |
| 2026-05-07 08:14 | 48.43100 | 16.17005 | 2993 ft | 128 kts | 338° |
| 2026-05-07 08:14 | 48.43964 | 16.16676 | 3000 ft | 128 kts | 335° |
| 2026-05-07 08:14 | 48.44810 | 16.16293 | 2992 ft | 126 kts | 333° |
| 2026-05-07 08:15 | 48.45633 | 16.15853 | 2995 ft | 125 kts | 330° |
| 2026-05-07 08:15 | 48.46431 | 16.15352 | 3001 ft | 123 kts | 327° |
| 2026-05-07 08:15 | 48.47194 | 16.14788 | 2996 ft | 121 kts | 324° |
| 2026-05-07 08:15 | 48.47932 | 16.14174 | 3000 ft | 123 kts | 322° |
| 2026-05-07 08:16 | 48.48637 | 16.13481 | 2995 ft | 119 kts | 315° |
| 2026-05-07 08:16 | 48.49233 | 16.12621 | 2995 ft | 119 kts | 303° |
| 2026-05-07 08:16 | 48.49729 | 16.11637 | 3003 ft | 118 kts | 297° |
| 2026-05-07 08:16 | 48.50213 | 16.10638 | 2995 ft | 122 kts | 307° |
| 2026-05-07 08:17 | 48.50920 | 16.09882 | 3002 ft | 128 kts | 322° |
| 2026-05-07 08:17 | 48.51764 | 16.09440 | 2983 ft | 129 kts | 335° |
| 2026-05-07 08:17 | 48.52623 | 16.09039 | 2993 ft | 129 kts | 333° |
| 2026-05-07 08:17 | 48.53468 | 16.08591 | 2999 ft | 126 kts | 330° |
| 2026-05-07 08:18 | 48.54265 | 16.08092 | 2996 ft | 125 kts | 326° |
| 2026-05-07 08:18 | 48.55039 | 16.07526 | 2981 ft | 122 kts | 323° |
| 2026-05-07 08:18 | 48.55784 | 16.06895 | 2997 ft | 122 kts | 320° |
| 2026-05-07 08:18 | 48.56662 | 16.06608 | 2988 ft | 141 kts | 355° |
| 2026-05-07 08:19 | 48.57586 | 16.07216 | 2994 ft | 152 kts | 29° |
| 2026-05-07 08:19 | 48.58149 | 16.08600 | 2989 ft | 161 kts | 69° |
| 2026-05-07 08:19 | 48.58082 | 16.10262 | 2992 ft | 160 kts | 108° |
| 2026-05-07 08:19 | 48.57406 | 16.11526 | 2990 ft | 154 kts | 145° |
| 2026-05-07 08:20 | 48.56411 | 16.11914 | 2985 ft | 145 kts | 185° |
| 2026-05-07 08:20 | 48.55531 | 16.11319 | 2988 ft | 136 kts | 221° |
| 2026-05-07 08:20 | 48.55140 | 16.10081 | 2959 ft | 133 kts | 261° |
| 2026-05-07 08:20 | 48.55400 | 16.08749 | 2987 ft | 134 kts | 292° |
| 2026-05-07 08:21 | 48.55755 | 16.07492 | 2998 ft | 127 kts | 285° |
| 2026-05-07 08:21 | 48.55945 | 16.06215 | 2992 ft | 124 kts | 274° |
| 2026-05-07 08:21 | 48.55910 | 16.04936 | 2981 ft | 122 kts | 260° |
| 2026-05-07 08:21 | 48.55650 | 16.03734 | 2986 ft | 119 kts | 244° |
| 2026-05-07 08:22 | 48.55197 | 16.02690 | 2973 ft | 120 kts | 237° |
| 2026-05-07 08:22 | 48.54714 | 16.01663 | 2989 ft | 117 kts | 234° |
| 2026-05-07 08:22 | 48.54272 | 16.00639 | 2973 ft | 118 kts | 242° |
| 2026-05-07 08:22 | 48.53867 | 15.99554 | 2911 ft | 118 kts | 239° |
| 2026-05-07 08:23 | 48.53438 | 15.98524 | 2692 ft | 112 kts | 233° |
| 2026-05-07 08:23 | 48.53016 | 15.97561 | 2372 ft | 110 kts | 236° |
| 2026-05-07 08:23 | 48.52590 | 15.96573 | 2081 ft | 117 kts | 237° |
| 2026-05-07 08:23 | 48.52141 | 15.95491 | 2085 ft | 126 kts | 244° |
| 2026-05-07 08:24 | 48.51858 | 15.94227 | 2113 ft | 126 kts | 252° |
| 2026-05-07 08:24 | 48.51714 | 15.92902 | 2101 ft | 130 kts | 258° |
| 2026-05-07 08:24 | 48.51536 | 15.91591 | 2098 ft | 128 kts | 256° |
| 2026-05-07 08:24 | 48.51290 | 15.90302 | 2099 ft | 126 kts | 250° |
| 2026-05-07 08:25 | 48.50963 | 15.89066 | 2097 ft | 129 kts | 245° |
| 2026-05-07 08:25 | 48.50569 | 15.87842 | 2102 ft | 129 kts | 242° |
| 2026-05-07 08:25 | 48.50128 | 15.86697 | 2101 ft | 125 kts | 238° |
| 2026-05-07 08:25 | 48.49628 | 15.85592 | 2110 ft | 127 kts | 233° |
| 2026-05-07 08:26 | 48.48464 | 15.83569 | 2101 ft | 130 kts | 227° |
| 2026-05-07 08:26 | 48.47811 | 15.82604 | 2108 ft | 129 kts | 226° |
| 2026-05-07 08:26 | 48.47295 | 15.81513 | 2105 ft | 127 kts | 241° |
| 2026-05-07 08:27 | 48.47023 | 15.80250 | 2110 ft | 125 kts | 253° |
| 2026-05-07 08:27 | 48.46807 | 15.78993 | 2098 ft | 125 kts | 254° |
| 2026-05-07 08:27 | 48.46610 | 15.77700 | 2101 ft | 128 kts | 256° |
| 2026-05-07 08:27 | 48.46443 | 15.76402 | 2101 ft | 126 kts | 257° |
| 2026-05-07 08:28 | 48.46300 | 15.75071 | 2089 ft | 126 kts | 256° |
| 2026-05-07 08:28 | 48.46145 | 15.73749 | 1930 ft | 128 kts | 253° |
| 2026-05-07 08:28 | 48.45877 | 15.72513 | 1794 ft | 124 kts | 245° |
| 2026-05-07 08:28 | 48.45490 | 15.71349 | 1657 ft | 127 kts | 238° |
| 2026-05-07 08:29 | 48.45063 | 15.70171 | 1555 ft | 130 kts | 242° |
| 2026-05-07 08:29 | 48.44789 | 15.68983 | 1686 ft | 115 kts | 253° |
| 2026-05-07 08:29 | 48.44643 | 15.67807 | 1714 ft | 114 kts | 256° |
| 2026-05-07 08:29 | 48.44521 | 15.66671 | 1646 ft | 103 kts | 254° |
| 2026-05-07 08:30 | 48.44452 | 15.65700 | 1524 ft | 84 kts | 258° |
| 2026-05-07 08:30 | 48.44411 | 15.64889 | 1369 ft | 71 kts | 261° |
| 2026-05-07 08:30 | 48.44481 | 15.64246 | 1211 ft | 53 kts | 270° |
| 2026-05-07 08:30 | 48.44552 | 15.63814 | 1112 ft | 34 kts | 272° |
| 2026-05-07 08:31 | 48.44612 | 15.63533 | 1095 ft | 22 kts | 273° |
| 2026-05-07 08:31 | 48.44644 | 15.63343 | 1093 ft | 16 kts | 261° |
| 2026-05-07 08:31 | 48.44628 | 15.63255 | 1094 ft | 1 kts | 220° |
| 2026-05-07 08:31 | 48.44632 | 15.63257 | 1083 ft | 1 kts | 214° |
| 2026-05-07 08:32 | 48.44626 | 15.63242 | 1082 ft | 2 kts | 199° |
| 2026-05-07 08:32 | 48.44615 | 15.63235 | 1068 ft | 1 kts | 194° |
| 2026-05-07 08:32 | 48.44614 | 15.63235 | 1065 ft | 0 kts | 192° |